Wednesday, December 12, 2018, 11:31 PM EST
Back to Local

KGON, Groton/new London Airport

Location: Groton, CT, United States Lat: 41.333
Local Time: 11:31 PM EST ( 4:31 GMT) Lon: -72.05
Time Zone: US/Eastern Elev: 9 ft

Show me the last for .
Show Decoded

2018-12-12 21:56 METAR KGON 130256Z 01004KT 10SM CLR M02/M11 A3029 RMK AO2 SLP255 T10221106 53024
                 =
2018-12-12 20:56 METAR KGON 130156Z 01008KT 10SM CLR M01/M09 A3025 RMK AO2 SLP244 T10111089 =
2018-12-12 19:56 METAR KGON 130056Z 34005KT 10SM CLR M01/M08 A3024 RMK AO2 SLP238 T10111083 =
2018-12-12 18:56 METAR KGON 122356Z 32005KT 10SM CLR M01/M08 A3022 RMK AO2 SLP231 T10061083 10056
                 21006 51032 =
2018-12-12 17:56 METAR KGON 122256Z 34004KT 10SM CLR 01/M08 A3018 RMK AO2 SLP221 T00061083 =
2018-12-12 16:56 METAR KGON 122156Z 33008KT 10SM CLR 02/M08 A3015 RMK AO2 SLP210 T00171083 =
2018-12-12 15:56 METAR KGON 122056Z 30013G16KT 10SM CLR 03/M08 A3012 RMK AO2 SLP199 T00331078
                 53022 =
2018-12-12 14:56 METAR KGON 121956Z 32012KT 10SM CLR 04/M09 A3008 RMK AO2 SLP187 T00441089 =
2018-12-12 13:56 METAR KGON 121856Z 30012KT 10SM CLR 05/M09 A3006 RMK AO2 SLP179 T00501094 =
2018-12-12 12:56 METAR KGON 121756Z 35012KT 10SM CLR 05/M09 A3006 RMK AO2 SLP177 T00501094 10050
                 21022 58004 =
2018-12-12 11:56 METAR KGON 121656Z 34011G24KT 10SM CLR 04/M09 A3007 RMK AO2 PK WND 32026/1642
                 SLP181 T00441094 =
2018-12-12 10:56 METAR KGON 121556Z 32012G18KT 10SM CLR 03/M08 A3007 RMK AO2 SLP181 T00331078 =
2018-12-12 09:56 METAR KGON 121456Z 32012KT 10SM CLR 02/M07 A3007 RMK AO2 SLP181 T00221067 51022
                 =
2018-12-12 08:56 METAR KGON 121356Z 31009KT 10SM CLR 01/M06 A3005 RMK AO2 SLP175 T00061056 =
2018-12-12 07:56 METAR KGON 121256Z 31008KT 10SM CLR M01/M06 A3003 RMK AO2 SLP169 T10111061 =
2018-12-12 06:56 METAR KGON 121156Z 31007KT 10SM OVC080 M02/M06 A3000 RMK AO2 SLP160 T10171061
                 10006 21028 53022 =
2018-12-12 05:56 METAR KGON 121056Z AUTO 31005KT 10SM BKN075 M02/M07 A2997 RMK AO2 SLP148
                 T10221067 =
2018-12-12 04:56 METAR KGON 120956Z AUTO 31007KT 10SM FEW120 M02/M07 A2996 RMK AO2 SLP144
                 T10221072 =
2018-12-12 03:56 METAR KGON 120856Z AUTO 30009KT 10SM CLR M02/M07 A2994 RMK AO2 SLP137 T10171072
                 53019 =
2018-12-12 02:56 METAR KGON 120756Z AUTO 32011KT 10SM FEW060 M01/M07 A2991 RMK AO2 SLP129
                 T10111072 =
2018-12-12 01:56 METAR KGON 120656Z AUTO 34011KT 10SM OVC060 01/M07 A2989 RMK AO2 SLP123
                 T00061067 =
2018-12-12 00:56 METAR KGON 120556Z AUTO 34007KT 10SM OVC055 01/M04 A2988 RMK AO2 SLP118
                 T00061039 10006 21022 56015 =
2018-12-11 23:56 METAR KGON 120456Z AUTO 33006KT 10SM OVC044 01/M02 A2989 RMK AO2 SLP122
                 T00061022 400331078 =

Support USWX by starting your Amazon purchase here.